createdAt,value
2017-11-26T00:00:11.678Z,5.57
2017-11-26T00:02:39.459Z,5.93
2017-11-26T00:05:07.193Z,5.97
2017-11-26T00:07:34.693Z,5.63
2017-11-26T00:10:02.195Z,5.40
2017-11-26T00:12:29.692Z,5.97
2017-11-26T00:14:57.297Z,6.30
2017-11-26T00:17:24.792Z,5.77
2017-11-26T00:19:52.290Z,6.37
2017-11-26T00:22:19.785Z,6.17
2017-11-26T00:24:47.457Z,5.00
2017-11-26T00:27:15.221Z,5.27
2017-11-26T00:29:42.717Z,6.17
2017-11-26T00:32:10.440Z,6.23
2017-11-26T00:34:38.035Z,4.87
2017-11-26T00:37:05.661Z,5.40
2017-11-26T00:39:33.166Z,6.67
2017-11-26T00:42:00.656Z,6.27
2017-11-26T00:44:28.145Z,5.87
2017-11-26T00:46:55.769Z,6.43
2017-11-26T00:49:23.377Z,6.37
2017-11-26T00:51:50.997Z,6.37
2017-11-26T00:54:18.511Z,4.83
2017-11-26T00:56:46.000Z,6.57
2017-11-26T00:59:13.492Z,5.97
2017-11-26T01:01:41.454Z,5.90
2017-11-26T01:04:08.946Z,7.20
2017-11-26T01:06:37.085Z,7.70
2017-11-26T01:09:04.581Z,7.97
2017-11-26T01:11:32.837Z,7.40
2017-11-26T01:14:00.373Z,8.00
2017-11-26T01:16:28.029Z,6.10
2017-11-26T01:18:55.528Z,6.80
2017-11-26T01:21:23.030Z,8.50
2017-11-26T01:23:50.692Z,7.60
2017-11-26T01:26:18.479Z,7.43
2017-11-26T01:28:46.241Z,4.27
2017-11-26T01:31:13.744Z,8.60
2017-11-26T01:33:41.430Z,6.20
2017-11-26T01:36:08.917Z,7.23
2017-11-26T01:38:36.778Z,7.57
2017-11-26T01:41:04.401Z,8.73
2017-11-26T01:43:31.901Z,8.00
2017-11-26T01:45:59.407Z,9.30
2017-11-26T01:48:26.911Z,7.93
2017-11-26T01:50:54.638Z,9.20
2017-11-26T01:53:22.137Z,9.20
2017-11-26T01:55:49.632Z,9.60
2017-11-26T01:58:17.897Z,10.23
2017-11-26T02:00:45.389Z,7.97
2017-11-26T02:03:12.889Z,6.60
2017-11-26T02:05:40.388Z,9.07
2017-11-26T02:08:08.652Z,10.50
2017-11-26T02:10:36.376Z,9.83
2017-11-26T02:13:03.865Z,9.10
2017-11-26T02:15:31.577Z,10.10
2017-11-26T02:17:59.069Z,9.67
2017-11-26T02:20:26.777Z,8.17
2017-11-26T02:22:54.278Z,10.17
2017-11-26T02:25:22.045Z,10.00
2017-11-26T02:27:49.541Z,10.90
2017-11-26T02:30:17.256Z,8.73
2017-11-26T02:32:56.706Z,10.43
2017-11-26T02:38:17.777Z,10.10
2017-11-26T02:40:45.325Z,11.00
2017-11-26T02:43:13.590Z,8.33
2017-11-26T02:45:41.215Z,10.60
2017-11-26T02:48:08.782Z,9.10
2017-11-26T02:50:36.284Z,10.13
2017-11-26T02:53:03.787Z,10.20
2017-11-26T02:55:31.449Z,9.20
2017-11-26T02:57:59.213Z,10.07
2017-11-26T03:00:26.715Z,9.40
2017-11-26T03:02:54.217Z,10.87
2017-11-26T03:05:21.737Z,10.90
2017-11-26T03:07:50.009Z,10.80
2017-11-26T03:10:17.521Z,11.13
2017-11-26T03:12:45.016Z,8.87
2017-11-26T03:15:13.305Z,11.03
2017-11-26T03:17:41.337Z,9.00
2017-11-26T03:20:09.090Z,11.30
2017-11-26T03:22:36.589Z,9.03
2017-11-26T03:25:04.913Z,9.73
2017-11-26T03:27:32.425Z,11.03
2017-11-26T03:29:59.920Z,12.50
2017-11-26T03:32:27.566Z,11.77
2017-11-26T03:34:55.062Z,9.40
2017-11-26T03:37:22.813Z,11.00
2017-11-26T03:39:50.312Z,9.37
2017-11-26T03:42:17.845Z,10.63
2017-11-26T03:44:45.317Z,9.87
2017-11-26T03:47:12.913Z,9.70
2017-11-26T03:49:40.708Z,9.93
2017-11-26T03:52:08.221Z,7.10
2017-11-26T03:54:35.716Z,9.07
2017-11-26T03:57:03.416Z,9.83
2017-11-26T03:59:31.149Z,10.20
2017-11-26T04:01:59.071Z,11.00
2017-11-26T04:04:27.840Z,9.30
2017-11-26T04:06:55.344Z,11.40
2017-11-26T04:09:22.848Z,10.50
2017-11-26T04:11:50.560Z,5.90
2017-11-26T04:14:18.345Z,10.70
2017-11-26T04:16:45.933Z,10.13
2017-11-26T04:19:13.538Z,10.23
2017-11-26T04:21:41.329Z,11.60
2017-11-26T04:24:09.097Z,9.37
2017-11-26T04:26:36.857Z,8.63
2017-11-26T04:29:04.392Z,9.43
2017-11-26T04:31:31.875Z,9.30
2017-11-26T04:33:59.541Z,7.23
2017-11-26T04:36:27.048Z,10.87
2017-11-26T04:38:54.716Z,9.93
2017-11-26T04:41:22.217Z,10.60
2017-11-26T04:43:49.725Z,11.63
2017-11-26T04:46:17.216Z,8.13
2017-11-26T04:48:44.720Z,7.70
2017-11-26T04:51:12.978Z,9.17
2017-11-26T04:53:42.033Z,10.37
2017-11-26T04:56:09.512Z,8.70
2017-11-26T04:58:37.168Z,10.23
2017-11-26T05:01:04.705Z,10.83
2017-11-26T05:03:32.212Z,9.30
2017-11-26T05:05:59.726Z,8.70
2017-11-26T05:08:27.229Z,8.40
2017-11-26T05:10:54.773Z,10.67
2017-11-26T05:13:22.269Z,8.00
2017-11-26T05:15:49.982Z,9.70
2017-11-26T05:18:17.522Z,9.83
2017-11-26T05:20:45.193Z,8.40
2017-11-26T05:23:12.963Z,10.07
2017-11-26T05:25:40.465Z,10.60
2017-11-26T05:28:07.971Z,6.27
2017-11-26T05:30:36.194Z,9.60
2017-11-26T05:33:03.693Z,8.57
2017-11-26T05:35:31.469Z,9.07
2017-11-26T05:37:58.979Z,11.37
2017-11-26T05:40:26.488Z,10.20
2017-11-26T05:42:53.988Z,8.83
2017-11-26T05:45:22.253Z,8.30
2017-11-26T05:47:49.768Z,9.73
2017-11-26T05:50:17.244Z,9.20
2017-11-26T05:52:44.801Z,9.73
2017-11-26T05:55:12.301Z,8.00
2017-11-26T05:57:39.829Z,10.63
2017-11-26T06:00:07.372Z,7.80
2017-11-26T06:02:35.026Z,10.20
2017-11-26T06:05:02.526Z,9.43
2017-11-26T06:07:30.024Z,6.90
2017-11-26T06:09:57.702Z,6.83
2017-11-26T06:12:25.474Z,9.23
2017-11-26T06:14:52.964Z,12.37
2017-11-26T06:17:20.477Z,9.73
2017-11-26T06:19:48.045Z,9.60
2017-11-26T06:22:15.525Z,9.17
2017-11-26T06:24:43.033Z,11.10
2017-11-26T06:27:10.533Z,9.50
2017-11-26T06:29:39.537Z,9.77
2017-11-26T06:32:07.085Z,7.43
2017-11-26T06:34:34.731Z,9.50
2017-11-26T06:37:02.236Z,9.47
2017-11-26T06:39:29.733Z,11.47
2017-11-26T06:41:57.849Z,10.30
2017-11-26T06:44:26.117Z,10.23
2017-11-26T06:46:53.609Z,6.47
2017-11-26T06:49:21.112Z,10.67
2017-11-26T06:51:48.622Z,9.67
2017-11-26T06:54:16.125Z,8.90
2017-11-26T06:56:43.647Z,11.43
2017-11-26T06:59:11.137Z,12.10
2017-11-26T07:01:38.632Z,8.70
2017-11-26T07:04:06.350Z,10.20
2017-11-26T07:06:33.858Z,13.13
2017-11-26T07:09:01.574Z,12.80
2017-11-26T07:11:29.070Z,14.00
2017-11-26T07:13:56.575Z,13.97
2017-11-26T07:16:24.244Z,12.53
2017-11-26T07:18:51.754Z,16.27
2017-11-26T07:21:19.460Z,14.83
2017-11-26T07:23:47.230Z,9.63
2017-11-26T07:26:14.994Z,15.03
2017-11-26T07:28:42.757Z,14.63
2017-11-26T07:31:10.459Z,17.80
2017-11-26T07:33:37.957Z,15.50
2017-11-26T07:36:06.138Z,14.60
2017-11-26T07:38:33.677Z,16.53
2017-11-26T07:41:02.066Z,16.23
2017-11-26T07:43:29.657Z,17.20
2017-11-26T07:45:57.154Z,15.73
2017-11-26T07:48:24.768Z,14.00
2017-11-26T07:50:52.313Z,19.00
2017-11-26T07:53:19.817Z,20.60
2017-11-26T07:55:47.309Z,18.47
2017-11-26T07:58:14.960Z,18.07
2017-11-26T08:00:42.489Z,18.97
2017-11-26T08:03:10.239Z,19.97
2017-11-26T08:05:37.738Z,19.87
2017-11-26T08:08:05.246Z,19.83
2017-11-26T08:10:32.759Z,17.93
2017-11-26T08:13:00.652Z,19.13
2017-11-26T08:15:28.456Z,19.37
2017-11-26T08:17:55.956Z,17.97
2017-11-26T08:20:23.461Z,11.73
2017-11-26T08:22:51.106Z,21.43
2017-11-26T08:25:18.617Z,19.13
2017-11-26T08:27:46.286Z,18.53
2017-11-26T08:30:14.080Z,19.53
2017-11-26T08:32:41.585Z,17.00
2017-11-26T08:35:09.216Z,18.43
2017-11-26T08:37:36.717Z,19.83
2017-11-26T08:40:04.230Z,18.50
2017-11-26T08:42:31.731Z,17.13
2017-11-26T08:44:59.284Z,18.97
2017-11-26T08:47:27.541Z,14.90
2017-11-26T08:49:55.237Z,15.60
2017-11-26T08:52:22.741Z,19.00
2017-11-26T08:54:50.245Z,19.67
2017-11-26T08:57:17.917Z,15.33
2017-11-26T08:59:45.425Z,19.10
2017-11-26T09:02:14.972Z,16.73
2017-11-26T09:04:42.460Z,13.80
2017-11-26T09:07:26.636Z,17.30
2017-11-26T09:09:54.135Z,18.20
2017-11-26T09:12:21.692Z,18.90
2017-11-26T09:14:49.189Z,17.23
2017-11-26T09:17:16.688Z,16.70
2017-11-26T09:19:44.369Z,16.93
2017-11-26T09:22:11.881Z,15.60
2017-11-26T09:24:39.373Z,10.00
2017-11-26T09:27:07.082Z,15.20
2017-11-26T09:29:34.590Z,17.03
2017-11-26T09:32:02.125Z,14.30
2017-11-26T09:34:29.628Z,10.77
2017-11-26T09:36:57.893Z,13.47
2017-11-26T09:39:25.597Z,15.33
2017-11-26T09:41:53.117Z,17.73
2017-11-26T09:44:21.471Z,15.33
2017-11-26T09:46:48.997Z,15.93
2017-11-26T09:49:16.659Z,11.63
2017-11-26T09:51:44.164Z,11.87
2017-11-26T09:54:11.869Z,15.43
2017-11-26T09:56:39.377Z,14.30
2017-11-26T09:59:07.090Z,17.23
2017-11-26T10:01:34.606Z,14.77
2017-11-26T10:04:02.106Z,12.63
2017-11-26T10:06:29.733Z,15.23
2017-11-26T10:08:57.242Z,15.77
2017-11-26T10:11:24.751Z,12.67
2017-11-26T10:13:52.407Z,14.63
2017-11-26T10:16:19.910Z,8.50
2017-11-26T10:18:47.412Z,16.10
2017-11-26T10:21:15.117Z,13.13
2017-11-26T10:23:42.625Z,11.20
2017-11-26T10:26:10.129Z,11.20
2017-11-26T10:28:37.798Z,10.70
2017-11-26T10:31:05.340Z,11.27
2017-11-26T10:33:32.841Z,14.87
2017-11-26T10:36:00.476Z,10.57
2017-11-26T10:38:27.980Z,12.13
2017-11-26T10:40:55.594Z,10.70
2017-11-26T10:43:23.110Z,12.60
2017-11-26T10:45:50.913Z,11.80
2017-11-26T10:48:18.417Z,13.30
2017-11-26T10:50:46.782Z,12.60
2017-11-26T10:53:15.182Z,12.37
2017-11-26T10:55:42.676Z,9.03
2017-11-26T10:58:10.173Z,8.83
2017-11-26T11:00:37.675Z,10.57
2017-11-26T11:03:05.254Z,12.43
2017-11-26T11:05:33.040Z,7.77
2017-11-26T11:08:00.545Z,8.13
2017-11-26T11:10:28.235Z,10.73
2017-11-26T11:12:55.742Z,10.83
2017-11-26T11:15:23.265Z,10.50
2017-11-26T11:17:50.880Z,9.73
2017-11-26T11:20:18.389Z,6.53
2017-11-26T11:22:45.889Z,9.73
2017-11-26T11:25:13.409Z,10.00
2017-11-26T11:27:40.888Z,7.13
2017-11-26T11:30:09.425Z,9.13
2017-11-26T11:32:36.923Z,9.97
2017-11-26T11:35:04.433Z,8.63
2017-11-26T11:37:32.107Z,10.90
2017-11-26T11:39:59.624Z,11.00
2017-11-26T11:42:27.119Z,9.83
2017-11-26T11:44:54.809Z,9.60
2017-11-26T11:47:22.295Z,8.33
2017-11-26T11:49:49.812Z,7.20
2017-11-26T11:52:17.333Z,8.63
2017-11-26T11:54:44.912Z,9.60
2017-11-26T11:57:12.412Z,7.97
2017-11-26T11:59:40.132Z,5.60
2017-11-26T12:02:07.636Z,7.40
2017-11-26T12:04:35.149Z,6.90
2017-11-26T12:07:02.688Z,9.03
2017-11-26T12:09:30.190Z,8.40
2017-11-26T12:11:57.710Z,8.50
2017-11-26T12:14:25.617Z,7.67
2017-11-26T12:16:53.125Z,8.30
2017-11-26T12:19:20.620Z,7.30
2017-11-26T12:21:48.124Z,8.97
2017-11-26T12:24:15.614Z,7.13
2017-11-26T12:26:43.125Z,5.87
2017-11-26T12:29:11.958Z,8.00
2017-11-26T12:31:40.566Z,4.60
2017-11-26T12:34:08.057Z,6.13
2017-11-26T12:36:36.325Z,6.97
2017-11-26T12:39:03.873Z,5.70
2017-11-26T12:41:32.144Z,7.20
2017-11-26T12:43:59.878Z,5.73
2017-11-26T12:46:27.377Z,6.63
2017-11-26T12:48:54.891Z,7.73
2017-11-26T12:51:23.362Z,7.43
2017-11-26T12:53:50.933Z,6.57
2017-11-26T12:56:18.449Z,9.07
2017-11-26T12:58:46.156Z,8.73
2017-11-26T13:01:14.531Z,4.63
2017-11-26T13:03:42.304Z,8.23
2017-11-26T13:06:10.393Z,7.27
2017-11-26T13:08:37.888Z,5.50
2017-11-26T13:11:05.584Z,7.40
2017-11-26T13:13:33.087Z,5.70
2017-11-26T13:16:00.597Z,6.50
2017-11-26T13:18:28.257Z,6.07
2017-11-26T13:20:55.764Z,5.90
2017-11-26T13:23:23.271Z,4.00
2017-11-26T13:25:50.768Z,5.53
2017-11-26T13:28:18.401Z,4.57
2017-11-26T13:30:45.900Z,4.40
2017-11-26T13:33:13.906Z,4.97
2017-11-26T13:35:41.390Z,3.30
2017-11-26T13:38:08.957Z,4.13
2017-11-26T13:40:36.457Z,3.50
2017-11-26T13:43:03.986Z,3.80
2017-11-26T13:45:31.473Z,3.20
2017-11-26T13:47:58.999Z,3.00
2017-11-26T13:50:27.127Z,1.50
2017-11-26T13:52:54.800Z,2.60
2017-11-26T13:55:22.292Z,2.23
2017-11-26T13:57:50.010Z,1.70
2017-11-26T14:00:17.521Z,2.47
2017-11-26T14:02:45.002Z,2.13
2017-11-26T14:05:12.501Z,2.17
2017-11-26T14:07:40.153Z,2.33
2017-11-26T14:10:07.832Z,3.00
2017-11-26T14:12:35.328Z,2.53
2017-11-26T14:15:03.133Z,2.80
2017-11-26T14:17:30.668Z,2.47
2017-11-26T14:19:58.157Z,2.40
2017-11-26T14:22:26.736Z,2.20
2017-11-26T14:24:54.349Z,1.63
2017-11-26T14:27:21.948Z,3.23
2017-11-26T14:29:49.461Z,1.67
2017-11-26T14:32:17.173Z,2.77
2017-11-26T14:34:44.671Z,2.47
2017-11-26T14:37:12.947Z,2.43
2017-11-26T14:39:40.456Z,2.30
2017-11-26T14:42:08.234Z,2.60
2017-11-26T14:44:35.789Z,2.37
2017-11-26T14:47:03.290Z,2.80
2017-11-26T14:49:31.563Z,2.10
2017-11-26T14:51:59.055Z,2.43
2017-11-26T14:54:26.590Z,2.13
2017-11-26T14:56:54.841Z,2.67
2017-11-26T14:59:22.370Z,3.10
2017-11-26T15:01:49.873Z,2.13
2017-11-26T15:04:18.131Z,2.17
2017-11-26T15:06:45.641Z,1.73
2017-11-26T15:09:13.352Z,1.70
2017-11-26T15:11:40.841Z,1.90
2017-11-26T15:14:08.353Z,1.77
2017-11-26T15:16:35.889Z,2.40
2017-11-26T15:19:03.448Z,1.70
2017-11-26T15:21:31.221Z,2.40
2017-11-26T15:23:58.742Z,2.70
2017-11-26T15:26:26.252Z,2.30
2017-11-26T15:28:53.853Z,2.33
2017-11-26T15:31:21.439Z,2.60
2017-11-26T15:33:48.949Z,2.13
2017-11-26T15:36:17.221Z,2.20
2017-11-26T15:38:44.722Z,2.97
2017-11-26T15:41:12.215Z,3.93
2017-11-26T15:43:39.724Z,4.20
2017-11-26T15:46:07.219Z,2.50
2017-11-26T15:48:34.775Z,2.17
2017-11-26T15:51:02.587Z,2.70
2017-11-26T15:53:30.081Z,3.27
2017-11-26T15:55:57.652Z,1.63
2017-11-26T15:58:25.146Z,1.53
2017-11-26T16:00:52.769Z,1.90
2017-11-26T16:03:20.298Z,2.37
2017-11-26T16:05:47.806Z,2.30
2017-11-26T16:08:15.348Z,2.03
2017-11-26T16:10:42.858Z,1.97
2017-11-26T16:13:11.072Z,2.07
2017-11-26T16:15:38.586Z,2.20
2017-11-26T16:18:06.082Z,2.17
2017-11-26T16:20:33.602Z,1.70
2017-11-26T16:23:01.357Z,2.60
2017-11-26T16:25:28.862Z,2.10
2017-11-26T16:27:56.404Z,2.13
2017-11-26T16:30:23.893Z,2.63
2017-11-26T16:32:51.445Z,1.93
2017-11-26T16:35:18.932Z,2.37
2017-11-26T16:37:46.494Z,1.43
2017-11-26T16:40:14.099Z,2.23
2017-11-26T16:42:41.763Z,2.27
2017-11-26T16:45:09.256Z,2.20
2017-11-26T16:47:36.781Z,1.90
2017-11-26T16:50:04.313Z,1.90
2017-11-26T16:52:32.017Z,1.90
2017-11-26T16:54:59.512Z,1.60
2017-11-26T16:57:27.125Z,2.10
2017-11-26T16:59:54.694Z,2.40
2017-11-26T17:02:22.344Z,1.63
2017-11-26T17:04:49.869Z,2.60
2017-11-26T17:07:17.349Z,1.53
2017-11-26T17:09:44.841Z,1.90
2017-11-26T17:12:12.350Z,2.10
2017-11-26T17:14:39.844Z,6.67
2017-11-26T17:17:07.363Z,2.57
2017-11-26T17:19:34.874Z,1.70
2017-11-26T17:22:02.396Z,2.13
2017-11-26T17:24:29.990Z,2.53
2017-11-26T17:26:57.516Z,1.93
2017-11-26T17:29:25.108Z,2.57
2017-11-26T17:31:52.853Z,2.20
2017-11-26T17:34:20.369Z,2.27
2017-11-26T17:36:47.873Z,2.80
2017-11-26T17:39:15.366Z,2.50
2017-11-26T17:41:43.625Z,2.77
2017-11-26T17:44:11.135Z,2.00
2017-11-26T17:46:38.820Z,2.60
2017-11-26T17:49:06.380Z,2.40
2017-11-26T17:51:34.068Z,2.10
2017-11-26T17:54:01.817Z,1.47
2017-11-26T17:56:29.333Z,1.53
2017-11-26T17:58:57.038Z,1.60
2017-11-26T18:01:24.857Z,1.40
2017-11-26T18:03:52.553Z,1.70
2017-11-26T18:06:20.337Z,2.17
2017-11-26T18:08:47.838Z,2.40
2017-11-26T18:11:15.446Z,1.90
2017-11-26T18:13:42.994Z,1.70
2017-11-26T18:16:10.775Z,2.10
2017-11-26T18:18:38.273Z,1.83
2017-11-26T18:21:06.695Z,2.57
2017-11-26T18:23:34.216Z,2.43
2017-11-26T18:26:01.717Z,2.20
2017-11-26T18:28:29.217Z,2.00
2017-11-26T18:30:56.713Z,2.33
2017-11-26T18:33:24.235Z,2.67
2017-11-26T18:35:51.925Z,2.50
2017-11-26T18:38:19.455Z,2.40
2017-11-26T18:40:47.075Z,2.43
2017-11-26T18:43:14.579Z,1.80
2017-11-26T18:45:42.130Z,2.30
2017-11-26T18:48:09.621Z,2.60
2017-11-26T18:50:37.106Z,2.40
2017-11-26T18:53:04.613Z,2.53
2017-11-26T18:55:32.106Z,3.03
2017-11-26T18:57:59.779Z,2.13
2017-11-26T19:00:27.429Z,2.00
2017-11-26T19:02:54.929Z,2.07
2017-11-26T19:05:22.437Z,2.60
2017-11-26T19:07:49.941Z,2.50
2017-11-26T19:10:18.252Z,2.33
2017-11-26T19:12:45.949Z,1.53
2017-11-26T19:15:13.468Z,2.10
2017-11-26T19:17:40.957Z,2.27
2017-11-26T19:20:08.616Z,2.03
2017-11-26T19:22:36.226Z,2.70
2017-11-26T19:25:04.761Z,2.30
2017-11-26T19:27:33.225Z,1.77
2017-11-26T19:30:01.624Z,3.20
2017-11-26T19:32:29.371Z,3.57
2017-11-26T19:34:57.451Z,2.40
2017-11-26T19:37:24.970Z,2.37
2017-11-26T19:39:52.469Z,2.10
2017-11-26T19:42:19.963Z,1.83
2017-11-26T19:44:47.488Z,2.37
2017-11-26T19:47:14.993Z,2.93
2017-11-26T19:49:42.505Z,2.33
2017-11-26T19:52:10.039Z,1.80
2017-11-26T19:54:38.536Z,1.30
2017-11-26T19:57:06.021Z,1.87
2017-11-26T19:59:33.521Z,2.00
2017-11-26T20:02:01.774Z,2.23
2017-11-26T20:04:29.529Z,1.90
2017-11-26T20:06:57.028Z,1.77
2017-11-26T20:09:24.533Z,2.57
2017-11-26T20:11:52.037Z,3.10
2017-11-26T20:14:19.533Z,1.90
2017-11-26T20:16:47.058Z,1.90
2017-11-26T20:19:14.548Z,2.13
2017-11-26T20:21:42.067Z,2.30
2017-11-26T20:24:09.578Z,1.50
2017-11-26T20:26:37.073Z,2.47
2017-11-26T20:29:04.572Z,1.83
2017-11-26T20:31:33.639Z,2.17
2017-11-26T20:34:01.116Z,1.97
2017-11-26T20:36:28.703Z,3.30
2017-11-26T20:38:56.889Z,2.40
2017-11-26T20:41:25.157Z,2.00
2017-11-26T20:43:52.644Z,2.70
2017-11-26T20:46:20.329Z,2.77
2017-11-26T20:48:48.109Z,1.83
2017-11-26T20:51:15.617Z,1.90
2017-11-26T20:53:43.346Z,2.33
2017-11-26T20:56:10.840Z,1.90
2017-11-26T20:58:38.407Z,2.27
2017-11-26T21:01:06.316Z,2.30
2017-11-26T21:03:33.868Z,3.30
2017-11-26T21:06:01.358Z,1.90
2017-11-26T21:08:29.410Z,2.23
2017-11-26T21:10:57.072Z,1.87
2017-11-26T21:13:24.825Z,2.30
2017-11-26T21:15:52.318Z,1.67
2017-11-26T21:18:19.858Z,2.27
2017-11-26T21:20:47.359Z,2.20
2017-11-26T21:23:14.865Z,2.47
2017-11-26T21:25:42.405Z,2.00
2017-11-26T21:28:09.897Z,2.03
2017-11-26T21:30:37.379Z,2.10
2017-11-26T21:33:05.062Z,1.47
2017-11-26T21:35:32.549Z,2.03
2017-11-26T21:38:00.050Z,1.90
2017-11-26T21:40:27.550Z,1.67
2017-11-26T21:42:55.054Z,1.77
2017-11-26T21:45:22.639Z,1.60
2017-11-26T21:47:50.145Z,1.70
2017-11-26T21:50:18.445Z,1.50
2017-11-26T21:52:46.710Z,1.67
2017-11-26T21:55:14.209Z,1.87
2017-11-26T21:57:41.775Z,2.30
2017-11-26T22:00:10.169Z,2.37
2017-11-26T22:02:38.486Z,2.10
2017-11-26T22:05:06.014Z,2.90
2017-11-26T22:07:33.510Z,2.13
2017-11-26T22:10:01.237Z,2.10
2017-11-26T22:12:28.849Z,1.80
2017-11-26T22:14:58.337Z,2.70
2017-11-26T22:17:25.828Z,2.10
2017-11-26T22:19:53.332Z,2.13
2017-11-26T22:22:20.943Z,2.30
2017-11-26T22:24:48.578Z,2.20
2017-11-26T22:27:16.194Z,2.07
2017-11-26T22:29:43.685Z,2.47
2017-11-26T22:32:11.190Z,2.43
2017-11-26T22:34:38.809Z,1.47
2017-11-26T22:37:06.506Z,2.77
2017-11-26T22:39:34.089Z,2.20
2017-11-26T22:42:01.608Z,2.30
2017-11-26T22:44:29.269Z,2.30
2017-11-26T22:46:56.778Z,1.70
2017-11-26T22:49:24.275Z,1.93
2017-11-26T22:51:51.782Z,2.13
2017-11-26T22:54:19.274Z,2.77
2017-11-26T22:56:46.897Z,5.07
2017-11-26T22:59:14.393Z,2.00
2017-11-26T23:01:42.189Z,1.87
2017-11-26T23:04:09.833Z,2.17
2017-11-26T23:06:37.345Z,3.53
2017-11-26T23:09:04.845Z,1.93
2017-11-26T23:11:33.167Z,2.23
2017-11-26T23:14:00.661Z,2.23
2017-11-26T23:16:28.417Z,1.70
2017-11-26T23:18:58.401Z,2.00
2017-11-26T23:21:25.897Z,1.83
2017-11-26T23:23:53.399Z,2.67
2017-11-26T23:26:20.986Z,1.80
2017-11-26T23:28:48.520Z,2.30
2017-11-26T23:31:16.013Z,1.90
2017-11-26T23:33:43.537Z,1.80
2017-11-26T23:36:11.081Z,2.20
2017-11-26T23:38:38.609Z,2.27
2017-11-26T23:41:06.084Z,2.37
2017-11-26T23:43:34.529Z,2.67
2017-11-26T23:46:02.149Z,3.13
2017-11-26T23:48:29.646Z,2.40
2017-11-26T23:50:57.148Z,4.43
2017-11-26T23:53:24.851Z,2.33
2017-11-26T23:55:52.548Z,2.90
2017-11-26T23:58:20.673Z,3.23
